sensor_id;sensor_type;location;lat;lon;timestamp;temperature;humidity
10644;DHT22;5370;50.132;8.626;2023-05-10T00:01:06;15.80;99.90
10644;DHT22;5370;50.132;8.626;2023-05-10T00:03:31;15.70;99.90
10644;DHT22;5370;50.132;8.626;2023-05-10T00:05:57;15.70;99.90
10644;DHT22;5370;50.132;8.626;2023-05-10T00:08:22;15.70;99.90
10644;DHT22;5370;50.132;8.626;2023-05-10T00:10:48;15.70;99.90
10644;DHT22;5370;50.132;8.626;2023-05-10T00:13:14;15.70;99.90
10644;DHT22;5370;50.132;8.626;2023-05-10T00:15:40;15.70;99.90
10644;DHT22;5370;50.132;8.626;2023-05-10T00:18:05;15.70;99.90
10644;DHT22;5370;50.132;8.626;2023-05-10T00:20:31;15.60;99.90
10644;DHT22;5370;50.132;8.626;2023-05-10T00:22:56;15.60;99.90
10644;DHT22;5370;50.132;8.626;2023-05-10T00:25:22;15.60;99.90
10644;DHT22;5370;50.132;8.626;2023-05-10T00:27:47;15.60;99.90
10644;DHT22;5370;50.132;8.626;2023-05-10T00:30:13;15.50;99.90
10644;DHT22;5370;50.132;8.626;2023-05-10T00:32:39;15.50;99.90
10644;DHT22;5370;50.132;8.626;2023-05-10T00:35:05;15.40;99.90
10644;DHT22;5370;50.132;8.626;2023-05-10T00:37:30;15.40;99.90
10644;DHT22;5370;50.132;8.626;2023-05-10T00:39:56;15.40;99.90
10644;DHT22;5370;50.132;8.626;2023-05-10T00:42:21;15.40;99.90
10644;DHT22;5370;50.132;8.626;2023-05-10T00:44:47;15.40;99.90
10644;DHT22;5370;50.132;8.626;2023-05-10T00:47:13;15.30;99.90
10644;DHT22;5370;50.132;8.626;2023-05-10T00:49:39;15.30;99.90
10644;DHT22;5370;50.132;8.626;2023-05-10T00:52:05;15.30;99.90
10644;DHT22;5370;50.132;8.626;2023-05-10T00:54:31;15.20;99.90
10644;DHT22;5370;50.132;8.626;2023-05-10T00:56:57;15.20;99.90
10644;DHT22;5370;50.132;8.626;2023-05-10T00:59:24;15.20;99.90
10644;DHT22;5370;50.132;8.626;2023-05-10T01:01:49;15.20;99.90
10644;DHT22;5370;50.132;8.626;2023-05-10T01:04:16;15.10;99.90
10644;DHT22;5370;50.132;8.626;2023-05-10T01:06:42;15.10;99.90
10644;DHT22;5370;50.132;8.626;2023-05-10T01:09:08;15.10;99.90
10644;DHT22;5370;50.132;8.626;2023-05-10T01:11:38;15.10;99.90
10644;DHT22;5370;50.132;8.626;2023-05-10T01:14:04;15.10;99.90
10644;DHT22;5370;50.132;8.626;2023-05-10T01:16:36;15.10;99.90
10644;DHT22;5370;50.132;8.626;2023-05-10T01:19:37;15.10;99.90
10644;DHT22;5370;50.132;8.626;2023-05-10T01:22:09;15.00;99.90
10644;DHT22;5370;50.132;8.626;2023-05-10T01:35:58;14.80;99.90
10644;DHT22;5370;50.132;8.626;2023-05-10T01:38:37;14.80;99.90
10644;DHT22;5370;50.132;8.626;2023-05-10T01:41:17;14.80;99.90
10644;DHT22;5370;50.132;8.626;2023-05-10T01:46:36;14.80;99.90
10644;DHT22;5370;50.132;8.626;2023-05-10T01:49:09;14.70;99.90
10644;DHT22;5370;50.132;8.626;2023-05-10T01:51:44;14.80;99.90
10644;DHT22;5370;50.132;8.626;2023-05-10T01:54:13;14.70;99.90
10644;DHT22;5370;50.132;8.626;2023-05-10T01:56:40;14.70;99.90
10644;DHT22;5370;50.132;8.626;2023-05-10T01:59:13;14.80;99.90
10644;DHT22;5370;50.132;8.626;2023-05-10T02:01:40;14.70;99.90
10644;DHT22;5370;50.132;8.626;2023-05-10T02:04:08;14.80;99.90
10644;DHT22;5370;50.132;8.626;2023-05-10T02:06:35;14.80;99.90
10644;DHT22;5370;50.132;8.626;2023-05-10T02:09:02;14.70;99.90
10644;DHT22;5370;50.132;8.626;2023-05-10T02:11:29;14.70;99.90
10644;DHT22;5370;50.132;8.626;2023-05-10T02:13:55;14.70;99.90
10644;DHT22;5370;50.132;8.626;2023-05-10T02:16:24;14.70;99.90
10644;DHT22;5370;50.132;8.626;2023-05-10T02:18:52;14.60;99.90
10644;DHT22;5370;50.132;8.626;2023-05-10T02:21:20;14.60;99.90
10644;DHT22;5370;50.132;8.626;2023-05-10T02:23:48;14.60;99.90
10644;DHT22;5370;50.132;8.626;2023-05-10T02:26:16;14.60;99.90
10644;DHT22;5370;50.132;8.626;2023-05-10T02:28:42;14.60;99.90
10644;DHT22;5370;50.132;8.626;2023-05-10T02:31:09;14.60;99.90
10644;DHT22;5370;50.132;8.626;2023-05-10T02:33:38;14.50;99.90
10644;DHT22;5370;50.132;8.626;2023-05-10T02:36:04;14.50;99.90
10644;DHT22;5370;50.132;8.626;2023-05-10T02:38:31;14.50;99.90
10644;DHT22;5370;50.132;8.626;2023-05-10T02:40:59;14.50;99.90
10644;DHT22;5370;50.132;8.626;2023-05-10T02:43:25;14.50;99.90
10644;DHT22;5370;50.132;8.626;2023-05-10T02:45:51;14.50;99.90
10644;DHT22;5370;50.132;8.626;2023-05-10T02:48:17;14.50;99.90
10644;DHT22;5370;50.132;8.626;2023-05-10T02:50:44;14.40;99.90
10644;DHT22;5370;50.132;8.626;2023-05-10T02:53:15;14.50;99.90
10644;DHT22;5370;50.132;8.626;2023-05-10T02:55:41;14.40;99.90
10644;DHT22;5370;50.132;8.626;2023-05-10T02:58:08;14.40;99.90
10644;DHT22;5370;50.132;8.626;2023-05-10T03:00:34;14.40;99.90
10644;DHT22;5370;50.132;8.626;2023-05-10T03:03:01;14.40;99.90
10644;DHT22;5370;50.132;8.626;2023-05-10T03:05:27;14.40;99.90
10644;DHT22;5370;50.132;8.626;2023-05-10T03:07:53;14.30;99.90
10644;DHT22;5370;50.132;8.626;2023-05-10T03:10:22;14.30;99.90
10644;DHT22;5370;50.132;8.626;2023-05-10T03:13:20;14.30;99.90
10644;DHT22;5370;50.132;8.626;2023-05-10T03:16:10;14.30;99.90
10644;DHT22;5370;50.132;8.626;2023-05-10T03:18:54;14.30;99.90
10644;DHT22;5370;50.132;8.626;2023-05-10T03:21:22;14.30;99.90
10644;DHT22;5370;50.132;8.626;2023-05-10T03:23:58;14.20;99.90
10644;DHT22;5370;50.132;8.626;2023-05-10T03:26:26;14.20;99.90
10644;DHT22;5370;50.132;8.626;2023-05-10T03:28:53;14.20;99.90
10644;DHT22;5370;50.132;8.626;2023-05-10T03:31:19;14.20;99.90
10644;DHT22;5370;50.132;8.626;2023-05-10T03:33:46;14.10;99.90
10644;DHT22;5370;50.132;8.626;2023-05-10T03:36:12;14.20;99.90
10644;DHT22;5370;50.132;8.626;2023-05-10T03:38:38;14.20;99.90
10644;DHT22;5370;50.132;8.626;2023-05-10T03:41:03;14.10;99.90
10644;DHT22;5370;50.132;8.626;2023-05-10T03:43:29;14.20;99.90
10644;DHT22;5370;50.132;8.626;2023-05-10T03:45:54;14.20;99.90
10644;DHT22;5370;50.132;8.626;2023-05-10T03:48:20;14.20;99.90
10644;DHT22;5370;50.132;8.626;2023-05-10T03:50:45;14.20;99.90
10644;DHT22;5370;50.132;8.626;2023-05-10T03:53:11;14.30;99.90
10644;DHT22;5370;50.132;8.626;2023-05-10T03:55:37;14.30;99.90
10644;DHT22;5370;50.132;8.626;2023-05-10T03:58:03;14.30;99.90
10644;DHT22;5370;50.132;8.626;2023-05-10T04:00:28;14.30;99.90
10644;DHT22;5370;50.132;8.626;2023-05-10T04:02:54;14.30;99.90
10644;DHT22;5370;50.132;8.626;2023-05-10T04:05:19;14.30;99.90
10644;DHT22;5370;50.132;8.626;2023-05-10T04:07:45;14.30;99.90
10644;DHT22;5370;50.132;8.626;2023-05-10T04:10:12;14.30;99.90
10644;DHT22;5370;50.132;8.626;2023-05-10T04:12:37;14.30;99.90
10644;DHT22;5370;50.132;8.626;2023-05-10T04:15:03;14.30;99.90
10644;DHT22;5370;50.132;8.626;2023-05-10T04:17:29;14.40;99.90
10644;DHT22;5370;50.132;8.626;2023-05-10T04:19:55;14.40;99.90
10644;DHT22;5370;50.132;8.626;2023-05-10T04:22:21;14.40;99.90
10644;DHT22;5370;50.132;8.626;2023-05-10T04:24:46;14.40;99.90
10644;DHT22;5370;50.132;8.626;2023-05-10T04:27:12;14.50;99.90
10644;DHT22;5370;50.132;8.626;2023-05-10T04:29:37;14.50;99.90
10644;DHT22;5370;50.132;8.626;2023-05-10T04:32:03;14.50;99.90
10644;DHT22;5370;50.132;8.626;2023-05-10T04:34:29;14.60;99.90
10644;DHT22;5370;50.132;8.626;2023-05-10T04:36:54;14.60;99.90
10644;DHT22;5370;50.132;8.626;2023-05-10T04:39:20;14.60;99.90
10644;DHT22;5370;50.132;8.626;2023-05-10T04:41:46;14.70;99.90
10644;DHT22;5370;50.132;8.626;2023-05-10T04:44:11;14.70;99.90
10644;DHT22;5370;50.132;8.626;2023-05-10T04:46:37;14.70;99.90
10644;DHT22;5370;50.132;8.626;2023-05-10T04:49:02;14.80;99.90
10644;DHT22;5370;50.132;8.626;2023-05-10T04:51:28;14.80;99.90
10644;DHT22;5370;50.132;8.626;2023-05-10T04:53:53;14.90;99.90
10644;DHT22;5370;50.132;8.626;2023-05-10T04:56:19;15.00;99.90
10644;DHT22;5370;50.132;8.626;2023-05-10T04:58:44;15.10;99.90
10644;DHT22;5370;50.132;8.626;2023-05-10T05:01:11;15.10;99.90
10644;DHT22;5370;50.132;8.626;2023-05-10T05:03:36;15.20;99.90
10644;DHT22;5370;50.132;8.626;2023-05-10T05:06:02;15.30;99.90
10644;DHT22;5370;50.132;8.626;2023-05-10T05:08:28;15.40;99.90
10644;DHT22;5370;50.132;8.626;2023-05-10T05:10:53;15.40;99.90
10644;DHT22;5370;50.132;8.626;2023-05-10T05:13:19;15.50;99.90
10644;DHT22;5370;50.132;8.626;2023-05-10T05:15:45;15.50;99.90
10644;DHT22;5370;50.132;8.626;2023-05-10T05:18:10;15.60;99.90
10644;DHT22;5370;50.132;8.626;2023-05-10T05:20:36;15.60;99.90
10644;DHT22;5370;50.132;8.626;2023-05-10T05:23:02;15.60;99.90
10644;DHT22;5370;50.132;8.626;2023-05-10T05:25:27;15.60;99.90
10644;DHT22;5370;50.132;8.626;2023-05-10T05:27:53;15.70;99.90
10644;DHT22;5370;50.132;8.626;2023-05-10T05:30:19;15.70;99.90
10644;DHT22;5370;50.132;8.626;2023-05-10T05:32:44;15.70;99.90
10644;DHT22;5370;50.132;8.626;2023-05-10T05:35:10;15.80;99.90
10644;DHT22;5370;50.132;8.626;2023-05-10T05:37:36;15.80;99.90
10644;DHT22;5370;50.132;8.626;2023-05-10T05:40:02;15.80;99.90
10644;DHT22;5370;50.132;8.626;2023-05-10T05:42:28;15.90;99.90
10644;DHT22;5370;50.132;8.626;2023-05-10T05:44:54;15.90;99.90
10644;DHT22;5370;50.132;8.626;2023-05-10T05:47:19;16.00;99.90
10644;DHT22;5370;50.132;8.626;2023-05-10T05:49:45;16.00;99.90
10644;DHT22;5370;50.132;8.626;2023-05-10T05:52:11;16.00;99.90
10644;DHT22;5370;50.132;8.626;2023-05-10T05:54:36;16.10;99.90
10644;DHT22;5370;50.132;8.626;2023-05-10T05:57:02;16.10;99.90
10644;DHT22;5370;50.132;8.626;2023-05-10T05:59:28;16.10;99.90
10644;DHT22;5370;50.132;8.626;2023-05-10T06:01:54;16.00;99.90
10644;DHT22;5370;50.132;8.626;2023-05-10T06:04:19;16.00;99.90
10644;DHT22;5370;50.132;8.626;2023-05-10T06:06:45;16.00;99.90
10644;DHT22;5370;50.132;8.626;2023-05-10T06:09:11;16.00;99.90
10644;DHT22;5370;50.132;8.626;2023-05-10T06:11:36;16.00;99.90
10644;DHT22;5370;50.132;8.626;2023-05-10T06:14:03;16.20;99.90
10644;DHT22;5370;50.132;8.626;2023-05-10T06:16:30;16.30;99.90
10644;DHT22;5370;50.132;8.626;2023-05-10T06:18:55;16.40;99.90
10644;DHT22;5370;50.132;8.626;2023-05-10T06:21:21;16.50;99.90
10644;DHT22;5370;50.132;8.626;2023-05-10T06:23:47;16.70;99.90
10644;DHT22;5370;50.132;8.626;2023-05-10T06:26:12;16.70;99.70
10644;DHT22;5370;50.132;8.626;2023-05-10T06:28:39;16.80;99.20
10644;DHT22;5370;50.132;8.626;2023-05-10T06:31:05;16.90;99.00
10644;DHT22;5370;50.132;8.626;2023-05-10T06:33:32;17.00;98.70
10644;DHT22;5370;50.132;8.626;2023-05-10T06:35:57;17.00;98.20
10644;DHT22;5370;50.132;8.626;2023-05-10T06:38:23;17.00;97.90
10644;DHT22;5370;50.132;8.626;2023-05-10T06:40:48;17.00;97.60
10644;DHT22;5370;50.132;8.626;2023-05-10T06:43:14;17.10;97.40
10644;DHT22;5370;50.132;8.626;2023-05-10T06:45:39;17.10;97.30
10644;DHT22;5370;50.132;8.626;2023-05-10T06:48:06;17.10;97.20
10644;DHT22;5370;50.132;8.626;2023-05-10T06:50:32;17.20;97.10
10644;DHT22;5370;50.132;8.626;2023-05-10T06:52:57;17.30;97.10
10644;DHT22;5370;50.132;8.626;2023-05-10T06:55:23;17.60;97.20
10644;DHT22;5370;50.132;8.626;2023-05-10T06:57:49;17.80;96.90
10644;DHT22;5370;50.132;8.626;2023-05-10T07:00:16;18.10;96.40
10644;DHT22;5370;50.132;8.626;2023-05-10T07:02:42;18.30;95.50
10644;DHT22;5370;50.132;8.626;2023-05-10T07:05:07;18.50;94.70
10644;DHT22;5370;50.132;8.626;2023-05-10T07:07:33;18.60;94.10
10644;DHT22;5370;50.132;8.626;2023-05-10T07:09:59;18.80;93.60
10644;DHT22;5370;50.132;8.626;2023-05-10T07:12:25;18.90;92.90
10644;DHT22;5370;50.132;8.626;2023-05-10T07:14:51;19.00;92.50
10644;DHT22;5370;50.132;8.626;2023-05-10T07:17:17;19.00;91.80
10644;DHT22;5370;50.132;8.626;2023-05-10T07:19:42;19.00;91.20
10644;DHT22;5370;50.132;8.626;2023-05-10T07:22:08;19.00;90.70
10644;DHT22;5370;50.132;8.626;2023-05-10T07:24:34;19.00;90.50
10644;DHT22;5370;50.132;8.626;2023-05-10T07:26:59;18.90;90.50
10644;DHT22;5370;50.132;8.626;2023-05-10T07:29:25;18.80;89.80
10644;DHT22;5370;50.132;8.626;2023-05-10T07:31:51;18.70;89.40
10644;DHT22;5370;50.132;8.626;2023-05-10T07:34:16;18.60;88.80
10644;DHT22;5370;50.132;8.626;2023-05-10T07:36:42;18.40;88.10
10644;DHT22;5370;50.132;8.626;2023-05-10T07:39:07;18.20;88.20
10644;DHT22;5370;50.132;8.626;2023-05-10T07:41:33;18.10;88.60
10644;DHT22;5370;50.132;8.626;2023-05-10T07:43:58;18.00;89.00
10644;DHT22;5370;50.132;8.626;2023-05-10T07:46:24;17.90;89.40
10644;DHT22;5370;50.132;8.626;2023-05-10T07:48:49;17.90;90.10
10644;DHT22;5370;50.132;8.626;2023-05-10T07:51:15;18.10;90.10
10644;DHT22;5370;50.132;8.626;2023-05-10T07:53:40;18.10;90.00
10644;DHT22;5370;50.132;8.626;2023-05-10T07:56:28;18.20;89.60
10644;DHT22;5370;50.132;8.626;2023-05-10T07:58:58;18.30;89.30
10644;DHT22;5370;50.132;8.626;2023-05-10T08:01:24;18.30;89.70
10644;DHT22;5370;50.132;8.626;2023-05-10T08:03:49;18.40;89.80
10644;DHT22;5370;50.132;8.626;2023-05-10T08:06:18;18.60;89.90
10644;DHT22;5370;50.132;8.626;2023-05-10T08:08:43;18.80;89.30
10644;DHT22;5370;50.132;8.626;2023-05-10T08:11:11;19.00;88.50
10644;DHT22;5370;50.132;8.626;2023-05-10T08:13:36;19.10;87.70
10644;DHT22;5370;50.132;8.626;2023-05-10T08:16:02;19.30;87.10
10644;DHT22;5370;50.132;8.626;2023-05-10T08:18:27;19.50;86.30
10644;DHT22;5370;50.132;8.626;2023-05-10T08:20:53;19.60;86.10
10644;DHT22;5370;50.132;8.626;2023-05-10T08:23:19;19.70;84.80
10644;DHT22;5370;50.132;8.626;2023-05-10T08:25:44;19.80;84.30
10644;DHT22;5370;50.132;8.626;2023-05-10T08:28:10;19.90;83.80
10644;DHT22;5370;50.132;8.626;2023-05-10T08:30:35;20.00;83.10
10644;DHT22;5370;50.132;8.626;2023-05-10T08:33:01;20.20;81.80
10644;DHT22;5370;50.132;8.626;2023-05-10T08:35:26;20.20;80.90
10644;DHT22;5370;50.132;8.626;2023-05-10T08:37:52;20.30;80.00
10644;DHT22;5370;50.132;8.626;2023-05-10T08:40:19;20.30;79.00
10644;DHT22;5370;50.132;8.626;2023-05-10T08:42:53;20.20;78.10
10644;DHT22;5370;50.132;8.626;2023-05-10T08:45:22;20.20;77.80
10644;DHT22;5370;50.132;8.626;2023-05-10T08:47:48;20.10;77.40
10644;DHT22;5370;50.132;8.626;2023-05-10T08:50:15;20.00;77.00
10644;DHT22;5370;50.132;8.626;2023-05-10T08:52:41;20.00;76.30
10644;DHT22;5370;50.132;8.626;2023-05-10T08:55:07;19.90;76.10
10644;DHT22;5370;50.132;8.626;2023-05-10T08:57:32;19.80;76.00
10644;DHT22;5370;50.132;8.626;2023-05-10T09:00:00;19.70;75.70
10644;DHT22;5370;50.132;8.626;2023-05-10T09:02:26;19.60;75.50
10644;DHT22;5370;50.132;8.626;2023-05-10T09:04:52;19.50;75.60
10644;DHT22;5370;50.132;8.626;2023-05-10T09:07:18;19.40;75.80
10644;DHT22;5370;50.132;8.626;2023-05-10T09:09:44;19.30;76.10
10644;DHT22;5370;50.132;8.626;2023-05-10T09:12:11;19.20;76.70
10644;DHT22;5370;50.132;8.626;2023-05-10T09:14:37;19.10;77.00
10644;DHT22;5370;50.132;8.626;2023-05-10T09:17:04;19.20;77.40
10644;DHT22;5370;50.132;8.626;2023-05-10T09:19:30;19.20;77.50
10644;DHT22;5370;50.132;8.626;2023-05-10T09:21:55;19.40;77.60
10644;DHT22;5370;50.132;8.626;2023-05-10T09:24:25;19.60;77.50
10644;DHT22;5370;50.132;8.626;2023-05-10T09:26:52;19.80;76.80
10644;DHT22;5370;50.132;8.626;2023-05-10T09:29:18;20.00;76.60
10644;DHT22;5370;50.132;8.626;2023-05-10T09:31:48;20.30;75.80
10644;DHT22;5370;50.132;8.626;2023-05-10T09:34:21;20.50;74.40
10644;DHT22;5370;50.132;8.626;2023-05-10T09:36:55;20.70;73.30
10644;DHT22;5370;50.132;8.626;2023-05-10T09:39:30;20.70;71.70
10644;DHT22;5370;50.132;8.626;2023-05-10T09:41:56;20.70;71.60
10644;DHT22;5370;50.132;8.626;2023-05-10T09:44:21;20.70;71.10
10644;DHT22;5370;50.132;8.626;2023-05-10T09:46:50;20.80;70.70
10644;DHT22;5370;50.132;8.626;2023-05-10T09:49:18;20.90;69.80
10644;DHT22;5370;50.132;8.626;2023-05-10T09:51:44;21.00;69.20
10644;DHT22;5370;50.132;8.626;2023-05-10T09:54:14;21.30;68.80
10644;DHT22;5370;50.132;8.626;2023-05-10T09:56:41;21.70;67.70
10644;DHT22;5370;50.132;8.626;2023-05-10T09:59:11;22.10;66.30
10644;DHT22;5370;50.132;8.626;2023-05-10T10:01:37;22.50;65.30
10644;DHT22;5370;50.132;8.626;2023-05-10T10:04:07;22.60;64.10
10644;DHT22;5370;50.132;8.626;2023-05-10T10:06:40;22.60;63.20
10644;DHT22;5370;50.132;8.626;2023-05-10T10:09:06;22.50;62.80
10644;DHT22;5370;50.132;8.626;2023-05-10T10:11:34;22.40;62.60
10644;DHT22;5370;50.132;8.626;2023-05-10T10:14:00;22.30;63.00
10644;DHT22;5370;50.132;8.626;2023-05-10T10:16:31;22.00;63.10
10644;DHT22;5370;50.132;8.626;2023-05-10T10:18:57;21.70;63.60
10644;DHT22;5370;50.132;8.626;2023-05-10T10:21:23;21.50;64.80
10644;DHT22;5370;50.132;8.626;2023-05-10T10:23:49;21.30;66.00
10644;DHT22;5370;50.132;8.626;2023-05-10T10:26:17;21.20;67.00
10644;DHT22;5370;50.132;8.626;2023-05-10T10:29:11;21.20;68.20
10644;DHT22;5370;50.132;8.626;2023-05-10T10:34:33;21.40;69.70
10644;DHT22;5370;50.132;8.626;2023-05-10T10:37:04;21.50;69.60
10644;DHT22;5370;50.132;8.626;2023-05-10T10:39:30;21.60;68.80
10644;DHT22;5370;50.132;8.626;2023-05-10T10:41:57;21.60;68.00
10644;DHT22;5370;50.132;8.626;2023-05-10T10:52:24;20.90;65.60
10644;DHT22;5370;50.132;8.626;2023-05-10T10:54:59;20.60;66.00
10644;DHT22;5370;50.132;8.626;2023-05-10T10:57:25;20.30;66.60
10644;DHT22;5370;50.132;8.626;2023-05-10T11:02:55;19.90;67.40
10644;DHT22;5370;50.132;8.626;2023-05-10T11:05:44;19.80;67.90
10644;DHT22;5370;50.132;8.626;2023-05-10T11:08:12;19.80;68.50
10644;DHT22;5370;50.132;8.626;2023-05-10T11:10:39;19.90;68.90
10644;DHT22;5370;50.132;8.626;2023-05-10T11:13:07;20.00;69.20
10644;DHT22;5370;50.132;8.626;2023-05-10T11:15:34;20.10;69.00
10644;DHT22;5370;50.132;8.626;2023-05-10T11:18:26;20.30;68.80
10644;DHT22;5370;50.132;8.626;2023-05-10T11:21:00;20.60;68.30
10644;DHT22;5370;50.132;8.626;2023-05-10T11:23:32;20.70;67.90
10644;DHT22;5370;50.132;8.626;2023-05-10T11:26:13;21.00;67.60
10644;DHT22;5370;50.132;8.626;2023-05-10T11:28:48;21.20;67.20
10644;DHT22;5370;50.132;8.626;2023-05-10T11:31:15;21.30;66.20
10644;DHT22;5370;50.132;8.626;2023-05-10T11:33:45;21.40;65.20
10644;DHT22;5370;50.132;8.626;2023-05-10T11:36:13;21.50;64.90
10644;DHT22;5370;50.132;8.626;2023-05-10T11:38:39;21.70;64.40
10644;DHT22;5370;50.132;8.626;2023-05-10T11:41:05;21.70;63.60
10644;DHT22;5370;50.132;8.626;2023-05-10T11:43:30;21.70;63.10
10644;DHT22;5370;50.132;8.626;2023-05-10T11:45:56;21.70;63.10
10644;DHT22;5370;50.132;8.626;2023-05-10T11:48:22;21.60;62.80
10644;DHT22;5370;50.132;8.626;2023-05-10T11:50:49;21.60;62.50
10644;DHT22;5370;50.132;8.626;2023-05-10T11:53:15;21.60;62.40
10644;DHT22;5370;50.132;8.626;2023-05-10T11:55:40;21.70;62.60
10644;DHT22;5370;50.132;8.626;2023-05-10T11:58:06;21.80;62.30
10644;DHT22;5370;50.132;8.626;2023-05-10T12:00:32;21.70;62.10
10644;DHT22;5370;50.132;8.626;2023-05-10T12:02:58;21.70;62.10
10644;DHT22;5370;50.132;8.626;2023-05-10T12:05:24;21.60;62.20
10644;DHT22;5370;50.132;8.626;2023-05-10T12:07:49;21.50;62.50
10644;DHT22;5370;50.132;8.626;2023-05-10T12:10:15;21.50;63.20
10644;DHT22;5370;50.132;8.626;2023-05-10T12:12:46;21.40;63.60
10644;DHT22;5370;50.132;8.626;2023-05-10T12:15:21;21.40;63.60
10644;DHT22;5370;50.132;8.626;2023-05-10T12:17:47;21.30;63.20
10644;DHT22;5370;50.132;8.626;2023-05-10T12:20:21;21.40;63.40
10644;DHT22;5370;50.132;8.626;2023-05-10T12:22:56;21.50;63.80
10644;DHT22;5370;50.132;8.626;2023-05-10T12:25:23;21.60;63.30
10644;DHT22;5370;50.132;8.626;2023-05-10T12:27:51;21.80;62.50
10644;DHT22;5370;50.132;8.626;2023-05-10T12:30:43;22.10;62.50
10644;DHT22;5370;50.132;8.626;2023-05-10T12:33:13;22.50;62.10
10644;DHT22;5370;50.132;8.626;2023-05-10T12:35:46;22.70;59.60
10644;DHT22;5370;50.132;8.626;2023-05-10T12:38:28;22.90;57.40
10644;DHT22;5370;50.132;8.626;2023-05-10T12:40:56;23.20;56.90
10644;DHT22;5370;50.132;8.626;2023-05-10T12:43:22;23.30;56.20
10644;DHT22;5370;50.132;8.626;2023-05-10T12:45:48;23.50;55.70
10644;DHT22;5370;50.132;8.626;2023-05-10T12:48:14;23.60;55.30
10644;DHT22;5370;50.132;8.626;2023-05-10T12:50:40;23.60;55.00
10644;DHT22;5370;50.132;8.626;2023-05-10T12:53:05;23.60;54.40
10644;DHT22;5370;50.132;8.626;2023-05-10T12:55:31;23.60;53.80
10644;DHT22;5370;50.132;8.626;2023-05-10T12:57:56;23.60;53.30
10644;DHT22;5370;50.132;8.626;2023-05-10T13:00:22;23.60;53.30
10644;DHT22;5370;50.132;8.626;2023-05-10T13:02:48;23.70;53.30
10644;DHT22;5370;50.132;8.626;2023-05-10T13:05:13;23.90;52.80
10644;DHT22;5370;50.132;8.626;2023-05-10T13:07:39;24.00;51.90
10644;DHT22;5370;50.132;8.626;2023-05-10T13:10:05;24.10;51.60
10644;DHT22;5370;50.132;8.626;2023-05-10T13:12:31;24.30;51.10
10644;DHT22;5370;50.132;8.626;2023-05-10T13:14:57;24.40;50.50
10644;DHT22;5370;50.132;8.626;2023-05-10T13:17:22;24.40;49.80
10644;DHT22;5370;50.132;8.626;2023-05-10T13:19:48;24.20;49.60
10644;DHT22;5370;50.132;8.626;2023-05-10T13:22:14;24.10;49.60
10644;DHT22;5370;50.132;8.626;2023-05-10T13:24:39;24.10;49.50
10644;DHT22;5370;50.132;8.626;2023-05-10T13:27:05;24.00;49.50
10644;DHT22;5370;50.132;8.626;2023-05-10T13:29:30;23.90;49.10
10644;DHT22;5370;50.132;8.626;2023-05-10T13:31:56;23.70;48.70
10644;DHT22;5370;50.132;8.626;2023-05-10T13:34:21;23.50;48.90
10644;DHT22;5370;50.132;8.626;2023-05-10T13:36:48;23.40;49.30
10644;DHT22;5370;50.132;8.626;2023-05-10T13:39:14;23.30;49.60
10644;DHT22;5370;50.132;8.626;2023-05-10T13:41:39;23.10;49.20
10644;DHT22;5370;50.132;8.626;2023-05-10T13:44:05;23.00;49.00
10644;DHT22;5370;50.132;8.626;2023-05-10T13:46:30;22.90;49.20
10644;DHT22;5370;50.132;8.626;2023-05-10T13:48:56;22.80;49.10
10644;DHT22;5370;50.132;8.626;2023-05-10T13:51:22;22.80;49.10
10644;DHT22;5370;50.132;8.626;2023-05-10T13:53:47;22.80;49.30
10644;DHT22;5370;50.132;8.626;2023-05-10T13:56:13;22.80;49.30
10644;DHT22;5370;50.132;8.626;2023-05-10T13:58:39;22.90;49.00
10644;DHT22;5370;50.132;8.626;2023-05-10T14:01:05;23.00;48.80
10644;DHT22;5370;50.132;8.626;2023-05-10T14:03:30;23.10;48.40
10644;DHT22;5370;50.132;8.626;2023-05-10T14:05:56;23.20;47.90
10644;DHT22;5370;50.132;8.626;2023-05-10T14:08:22;23.20;47.50
10644;DHT22;5370;50.132;8.626;2023-05-10T14:10:48;23.40;47.20
10644;DHT22;5370;50.132;8.626;2023-05-10T14:13:14;23.40;46.70
10644;DHT22;5370;50.132;8.626;2023-05-10T14:15:40;23.40;46.40
10644;DHT22;5370;50.132;8.626;2023-05-10T14:18:06;23.30;46.50
10644;DHT22;5370;50.132;8.626;2023-05-10T14:20:32;23.30;46.70
10644;DHT22;5370;50.132;8.626;2023-05-10T14:22:59;23.10;46.70
10644;DHT22;5370;50.132;8.626;2023-05-10T14:25:25;23.00;46.50
10644;DHT22;5370;50.132;8.626;2023-05-10T14:27:50;22.70;46.20
10644;DHT22;5370;50.132;8.626;2023-05-10T14:30:16;22.70;46.70
10644;DHT22;5370;50.132;8.626;2023-05-10T14:32:42;22.60;47.10
10644;DHT22;5370;50.132;8.626;2023-05-10T14:35:08;22.70;47.60
10644;DHT22;5370;50.132;8.626;2023-05-10T14:37:34;22.60;47.20
10644;DHT22;5370;50.132;8.626;2023-05-10T14:39:59;22.70;47.10
10644;DHT22;5370;50.132;8.626;2023-05-10T14:42:25;22.70;46.90
10644;DHT22;5370;50.132;8.626;2023-05-10T14:44:50;22.80;46.30
10644;DHT22;5370;50.132;8.626;2023-05-10T14:47:16;22.90;45.80
10644;DHT22;5370;50.132;8.626;2023-05-10T14:49:42;22.90;45.50
10644;DHT22;5370;50.132;8.626;2023-05-10T14:52:07;22.80;45.60
10644;DHT22;5370;50.132;8.626;2023-05-10T14:54:33;22.80;45.70
10644;DHT22;5370;50.132;8.626;2023-05-10T14:56:59;22.90;45.80
10644;DHT22;5370;50.132;8.626;2023-05-10T14:59:25;22.90;45.90
10644;DHT22;5370;50.132;8.626;2023-05-10T15:01:51;22.90;45.80
10644;DHT22;5370;50.132;8.626;2023-05-10T15:04:16;22.80;45.60
10644;DHT22;5370;50.132;8.626;2023-05-10T15:06:42;22.80;45.60
10644;DHT22;5370;50.132;8.626;2023-05-10T15:09:07;22.70;45.90
10644;DHT22;5370;50.132;8.626;2023-05-10T15:11:34;22.60;46.00
10644;DHT22;5370;50.132;8.626;2023-05-10T15:14:00;22.60;46.10
10644;DHT22;5370;50.132;8.626;2023-05-10T15:16:26;22.50;46.00
10644;DHT22;5370;50.132;8.626;2023-05-10T15:18:51;22.50;46.10
10644;DHT22;5370;50.132;8.626;2023-05-10T15:21:17;22.40;46.10
10644;DHT22;5370;50.132;8.626;2023-05-10T15:23:42;22.30;46.00
10644;DHT22;5370;50.132;8.626;2023-05-10T15:26:08;22.30;46.30
10644;DHT22;5370;50.132;8.626;2023-05-10T15:28:33;22.20;46.60
10644;DHT22;5370;50.132;8.626;2023-05-10T15:30:59;22.20;46.80
10644;DHT22;5370;50.132;8.626;2023-05-10T15:33:25;22.10;46.90
10644;DHT22;5370;50.132;8.626;2023-05-10T15:35:52;22.10;46.90
10644;DHT22;5370;50.132;8.626;2023-05-10T15:38:19;22.00;47.00
10644;DHT22;5370;50.132;8.626;2023-05-10T15:40:44;22.00;47.50
10644;DHT22;5370;50.132;8.626;2023-05-10T15:43:10;22.00;47.60
10644;DHT22;5370;50.132;8.626;2023-05-10T15:45:35;21.90;47.50
10644;DHT22;5370;50.132;8.626;2023-05-10T15:48:01;21.90;47.70
10644;DHT22;5370;50.132;8.626;2023-05-10T15:50:26;21.90;47.90
10644;DHT22;5370;50.132;8.626;2023-05-10T15:52:52;21.90;48.00
10644;DHT22;5370;50.132;8.626;2023-05-10T15:55:18;21.90;48.00
10644;DHT22;5370;50.132;8.626;2023-05-10T15:57:44;21.90;48.20
10644;DHT22;5370;50.132;8.626;2023-05-10T16:00:11;21.90;48.50
10644;DHT22;5370;50.132;8.626;2023-05-10T16:02:38;21.90;48.40
10644;DHT22;5370;50.132;8.626;2023-05-10T16:05:04;21.90;48.20
10644;DHT22;5370;50.132;8.626;2023-05-10T16:07:29;21.90;48.20
10644;DHT22;5370;50.132;8.626;2023-05-10T16:09:55;21.80;47.90
10644;DHT22;5370;50.132;8.626;2023-05-10T16:12:20;21.80;47.90